Time;durP1;ratioP1;P1;durP2;ratioP2;P2;SDS_P1;SDS_P2;PMS_P1;PMS_P2;Temp;Humidity;BMP_temperature;BMP_pressure;BME280_temperature;BME280_humidity;BME280_pressure;Samples;Min_cycle;Max_cycle;Signal;HPM_P1;HPM_P2
2022/11/09 02:51:18;;;;;;;71.68;34.20;;;;;;;10.75;73.71;95776.16;5070649;28;20542;-77
2022/11/09 02:53:43;;;;;;;64.63;34.33;;;;;;;10.99;73.59;95818.94;5085472;28;20296;-77
2022/11/09 02:56:09;;;;;;;60.42;32.15;;;;;;;10.90;73.50;95792.13;5092233;28;20379;-76
2022/11/09 02:58:34;;;;;;;61.22;31.40;;;;;;;10.88;73.15;95788.13;5073297;28;20115;-76
2022/11/09 03:00:59;;;;;;;63.78;33.60;;;;;;;11.05;73.16;95818.72;5073519;28;20040;-75
2022/11/09 03:03:25;;;;;;;58.42;33.08;;;;;;;11.19;73.16;95835.75;5091350;28;20061;-75
2022/11/09 03:05:50;;;;;;;60.55;32.67;;;;;;;11.22;73.42;95839.72;5091284;28;20024;-76
2022/11/09 03:08:16;;;;;;;59.17;32.63;;;;;;;10.90;72.54;95784.16;5091515;28;20074;-75
2022/11/09 03:10:41;;;;;;;62.58;32.97;;;;;;;11.07;72.54;95811.28;5073064;28;20032;-75
2022/11/09 03:13:07;;;;;;;69.60;33.72;;;;;;;11.25;72.54;95838.41;5072618;28;20035;-76
2022/11/09 03:15:32;;;;;;;61.60;32.97;;;;;;;10.99;72.69;95810.97;5073110;28;20565;-76
2022/11/09 03:17:57;;;;;;;59.85;33.58;;;;;;;10.91;72.70;95798.25;5073168;28;20040;-76
2022/11/09 03:20:23;;;;;;;58.80;33.42;;;;;;;10.75;73.07;95768.19;5073138;28;20040;-76
2022/11/09 03:22:48;;;;;;;58.05;33.28;;;;;;;11.22;72.51;95845.84;5091178;28;20127;-76
2022/11/09 03:25:14;;;;;;;64.85;31.65;;;;;;;11.06;72.94;95819.53;5091049;28;20044;-76
2022/11/09 03:27:39;;;;;;;60.72;33.70;;;;;;;11.19;73.37;95829.66;5090929;28;20047;-76
2022/11/09 03:30:05;;;;;;;60.05;32.55;;;;;;;10.75;73.18;95782.25;5090912;28;20589;-76
2022/11/09 03:32:31;;;;;;;66.32;33.25;;;;;;;10.63;72.94;95765.75;5091497;28;20047;-76
2022/11/09 03:34:56;;;;;;;57.42;32.65;;;;;;;10.76;72.94;95794.44;5072412;28;20039;-76
2022/11/09 03:37:21;;;;;;;60.78;33.95;;;;;;;10.98;73.13;95831.44;5090660;28;20036;-76
2022/11/09 03:39:47;;;;;;;57.97;31.83;;;;;;;10.73;73.21;95802.13;5072324;28;20118;-76
2022/11/09 03:42:12;;;;;;;70.22;33.65;;;;;;;10.78;73.05;95826.03;5088780;28;20032;-76
2022/11/09 03:44:38;;;;;;;64.20;33.45;;;;;;;10.51;73.10;95783.75;5056152;28;20093;-76
2022/11/09 03:47:03;;;;;;;61.55;32.88;;;;;;;10.79;73.80;95846.19;5072553;28;20051;-76
2022/11/09 03:49:29;;;;;;;58.00;32.65;;;;;;;10.77;73.48;95851.75;5090636;28;20028;-76
2022/11/09 03:51:54;;;;;;;60.88;32.05;;;;;;;10.36;73.45;95792.41;5072385;28;20050;-76
2022/11/09 03:54:19;;;;;;;62.53;31.33;;;;;;;10.73;73.29;95850.69;5090774;28;20040;-76
2022/11/09 03:56:45;;;;;;;61.38;33.42;;;;;;;10.33;73.81;95803.53;5090298;28;20032;-76
2022/11/09 03:59:10;;;;;;;66.22;33.20;;;;;;;10.04;72.97;95757.19;5090719;28;20612;-76
2022/11/09 04:01:36;;;;;;;59.83;30.25;;;;;;;10.52;73.85;95845.53;5090727;28;20039;-76
2022/11/09 04:04:01;;;;;;;66.43;31.95;;;;;;;10.52;73.36;95848.19;5072418;28;20126;-76
2022/11/09 04:06:26;;;;;;;57.95;31.42;;;;;;;10.49;73.37;95846.03;5072349;28;20113;-75
2022/11/09 04:08:52;;;;;;;51.97;31.10;;;;;;;10.47;73.48;95856.91;5072243;28;20115;-75
2022/11/09 04:11:17;;;;;;;68.32;33.03;;;;;;;10.31;73.33;95832.13;5072309;28;20047;-75
2022/11/09 04:13:42;;;;;;;60.05;32.90;;;;;;;10.08;73.36;95804.13;5090178;28;20040;-76
2022/11/09 04:16:08;;;;;;;59.88;32.67;;;;;;;10.12;73.21;95809.72;5090219;28;20040;-75
2022/11/09 04:18:33;;;;;;;51.67;29.17;;;;;;;10.04;73.27;95803.03;5090598;28;20051;-75
2022/11/09 04:20:59;;;;;;;63.50;32.90;;;;;;;10.05;73.29;95814.44;5072056;28;20514;-75
2022/11/09 04:23:24;;;;;;;53.13;30.95;;;;;;;10.05;73.42;95815.25;5090411;28;20478;-76
2022/11/09 04:25:50;;;;;;;62.00;33.00;;;;;;;9.78;73.31;95781.91;5071589;28;20140;-76
2022/11/09 04:28:15;;;;;;;59.85;31.55;;;;;;;9.88;73.69;95797.88;5090441;28;20097;-75
2022/11/09 04:30:41;;;;;;;58.53;32.75;;;;;;;9.99;73.42;95818.13;5090600;28;20395;-75
2022/11/09 04:33:08;;;;;;;56.15;30.25;;;;;;;10.02;73.39;95829.00;5090533;28;20043;-76
2022/11/09 04:35:34;;;;;;;52.45;29.15;;;;;;;10.02;73.01;95844.09;5089988;28;20044;-76
2022/11/09 04:38:02;;;;;;;52.30;29.75;;;;;;;9.47;72.46;95763.13;5089703;28;20045;-76
2022/11/09 04:40:30;;;;;;;54.13;30.10;;;;;;;9.96;73.05;95847.75;5090478;28;20498;-75
2022/11/09 04:42:59;;;;;;;55.22;31.02;;;;;;;9.51;73.03;95774.81;5089901;28;20076;-76
2022/11/09 04:45:26;;;;;;;55.42;29.70;;;;;;;9.98;73.50;95845.66;5071793;28;20043;-75
2022/11/09 04:47:57;;;;;;;58.35;30.05;;;;;;;9.57;73.45;95799.47;5088944;28;20043;-76
2022/11/09 04:50:23;;;;;;;52.92;29.83;;;;;;;9.54;72.73;95792.03;5054146;28;20056;-75
2022/11/09 04:52:49;;;;;;;65.75;30.42;;;;;;;9.50;72.76;95798.88;5090416;28;20510;-75
2022/11/09 04:55:15;;;;;;;56.88;30.63;;;;;;;9.64;72.82;95824.69;5094029;28;20113;-75
2022/11/09 04:57:40;;;;;;;56.90;30.30;;;;;;;9.48;72.87;95807.06;5074678;28;20036;-76
2022/11/09 05:00:06;;;;;;;67.07;32.63;;;;;;;9.38;72.70;95788.47;5093880;28;20044;-76
2022/11/09 05:02:31;;;;;;;69.43;32.83;;;;;;;9.61;73.30;95829.72;5074667;28;20032;-75
2022/11/09 05:04:57;;;;;;;67.13;34.13;;;;;;;9.87;73.07;95865.97;5087950;28;20072;-77
2022/11/09 05:07:22;;;;;;;66.00;33.55;;;;;;;9.24;73.20;95798.63;5083005;28;20449;-75
2022/11/09 05:09:48;;;;;;;58.45;32.03;;;;;;;9.66;73.61;95859.69;5035550;28;20040;-76
2022/11/09 05:12:13;;;;;;;60.45;32.33;;;;;;;9.53;73.89;95835.47;5047165;28;20621;-76
2022/11/09 05:14:39;;;;;;;56.38;31.20;;;;;;;9.74;73.11;95868.22;5045327;28;20048;-77
2022/11/09 05:17:05;;;;;;;60.72;32.10;;;;;;;9.17;73.47;95791.94;5063691;28;20032;-76
2022/11/09 05:19:31;;;;;;;62.67;33.30;;;;;;;9.42;73.81;95823.16;5057457;28;20052;-77
2022/11/09 05:23:57;;;;;;;87.07;44.47;;;;;;;9.19;73.90;95790.66;5050538;28;20056;-77
2022/11/09 05:24:42;;;;;;;82.40;44.35;;;;;;;9.43;73.74;95838.00;5057378;28;20093;-76
2022/11/09 05:27:08;;;;;;;79.13;43.42;;;;;;;9.25;73.99;95816.13;5048321;28;20495;-77
2022/11/09 05:29:33;;;;;;;84.35;45.38;;;;;;;9.02;73.89;95776.72;5045100;28;20087;-77
2022/11/09 05:31:58;;;;;;;66.38;38.35;;;;;;;9.25;74.36;95826.69;5040273;28;20062;-78
2022/11/09 05:34:24;;;;;;;66.28;36.88;;;;;;;8.99;73.60;95793.09;5062147;28;20424;-78
2022/11/09 05:36:49;;;;;;;62.72;35.65;;;;;;;8.99;74.08;95794.94;5062917;28;20036;-77
2022/11/09 05:39:15;;;;;;;73.45;36.55;;;;;;;8.83;75.04;95800.06;5054908;28;20056;-77
2022/11/09 05:41:40;;;;;;;64.13;34.75;;;;;;;9.00;74.50;95801.84;5074822;28;20064;-77
2022/11/09 05:44:06;;;;;;;65.25;32.13;;;;;;;9.58;74.51;95881.31;5058950;28;20477;-77
2022/11/09 05:46:32;;;;;;;62.63;33.15;;;;;;;9.36;74.84;95848.00;5048715;28;20040;-77
2022/11/09 05:48:58;;;;;;;66.70;33.28;;;;;;;9.05;74.22;95807.16;5070826;28;20691;-77
2022/11/09 05:51:23;;;;;;;67.82;36.17;;;;;;;9.54;73.98;95897.94;5070758;28;20055;-77
2022/11/09 05:53:49;;;;;;;68.55;36.83;;;;;;;8.81;74.31;95774.91;5071338;28;20121;-79
2022/11/09 05:56:15;;;;;;;62.97;35.33;;;;;;;8.89;74.76;95788.47;5067938;28;20028;-77
2022/11/09 05:58:40;;;;;;;61.42;33.53;;;;;;;9.48;74.19;95878.56;5067422;28;20044;-76
2022/11/09 06:01:12;;;;;;;65.43;33.22;;;;;;;9.63;74.45;95904.41;5060286;28;20082;-77
2022/11/09 06:03:39;;;;;;;60.40;33.30;;;;;;;9.14;74.73;95834.78;5044969;28;20044;-77
2022/11/09 06:06:06;;;;;;;62.80;33.03;;;;;;;9.54;74.46;95895.28;5054408;28;20109;-78
2022/11/09 06:08:32;;;;;;;71.20;35.58;;;;;;;9.68;75.33;95907.91;5054300;28;20044;-78
2022/11/09 06:11:00;;;;;;;73.72;34.83;;;;;;;9.76;74.85;95908.53;5065328;28;20193;-80
2022/11/09 06:13:27;;;;;;;75.90;35.55;;;;;;;9.50;74.94;95865.09;5066976;28;20047;-81
2022/11/09 06:15:53;;;;;;;71.22;34.78;;;;;;;8.38;74.28;95678.72;5065229;28;20147;-80
2022/11/09 06:18:19;;;;;;;69.47;34.33;;;;;;;9.58;75.06;95860.13;5055746;28;20044;-81
2022/11/09 06:20:44;;;;;;;66.22;33.63;;;;;;;9.21;74.54;95796.50;5039587;28;20048;-80
2022/11/09 06:23:10;;;;;;;58.80;33.72;;;;;;;9.78;75.09;95872.75;5058245;28;20092;-78
2022/11/09 06:25:36;;;;;;;68.30;33.70;;;;;;;10.17;75.36;95928.22;5042314;28;20714;-77
2022/11/09 06:28:01;;;;;;;63.38;34.50;;;;;;;10.27;74.51;95923.03;5044488;28;20043;-77
2022/11/09 06:30:27;;;;;;;61.40;32.65;;;;;;;10.37;74.26;95925.78;5044524;28;20086;-77
2022/11/09 06:32:59;;;;;;;71.43;35.13;;;;;;;9.81;73.71;95826.44;5049445;28;20043;-77
2022/11/09 06:35:25;;;;;;;63.65;34.85;;;;;;;10.17;73.77;95869.91;5069557;28;20130;-77
2022/11/09 06:37:57;;;;;;;63.42;34.05;;;;;;;10.28;74.17;95858.38;5055729;28;20616;-77
2022/11/09 06:40:23;;;;;;;75.50;37.55;;;;;;;10.32;73.60;95864.75;5068008;28;20048;-77
2022/11/09 06:42:49;;;;;;;76.63;35.25;;;;;;;10.30;72.82;95854.38;5051211;28;20032;-77
2022/11/09 06:45:14;;;;;;;63.38;36.10;;;;;;;10.35;73.25;95851.00;5045198;28;20499;-79
2022/11/09 06:47:39;;;;;;;62.67;35.67;;;;;;;10.77;72.25;95906.66;5055342;28;20127;-77
2022/11/09 06:50:05;;;;;;;61.55;35.15;;;;;;;10.62;72.62;95877.41;5048714;28;20405;-76
2022/11/09 06:52:31;;;;;;;61.35;34.67;;;;;;;10.38;72.23;95824.75;5066824;28;20056;-78
2022/11/09 06:54:56;;;;;;;59.78;34.67;;;;;;;11.02;71.75;95916.63;5058718;28;20054;-78
2022/11/09 06:57:21;;;;;;;70.05;36.08;;;;;;;10.26;71.86;95802.94;5060833;28;20036;-78
2022/11/09 06:59:47;;;;;;;61.15;35.78;;;;;;;11.11;71.75;95923.84;5037157;28;20048;-78
2022/11/09 07:02:16;;;;;;;65.55;36.75;;;;;;;11.13;72.25;95926.25;5043909;28;20142;-79
2022/11/09 07:04:42;;;;;;;65.50;35.40;;;;;;;10.29;71.35;95783.88;5040543;28;20054;-77
2022/11/09 07:07:07;;;;;;;62.22;33.30;;;;;;;10.68;71.71;95853.28;5056942;28;20029;-78
2022/11/09 07:09:32;;;;;;;63.83;35.63;;;;;;;10.51;71.47;95842.09;5034613;28;20039;-79
2022/11/09 07:11:58;;;;;;;65.90;35.55;;;;;;;11.00;71.55;95897.50;5041864;28;20044;-77
2022/11/09 07:14:24;;;;;;;63.10;35.45;;;;;;;10.57;71.32;95821.69;5051828;28;20541;-78
2022/11/09 07:16:49;;;;;;;70.20;35.45;;;;;;;10.79;70.96;95847.00;5056638;28;20045;-79
2022/11/09 07:19:16;;;;;;;67.07;37.13;;;;;;;10.92;71.13;95866.16;5042664;28;20113;-77
2022/11/09 07:21:42;;;;;;;64.55;35.85;;;;;;;11.20;70.96;95902.94;5036764;28;20177;-78
2022/11/09 07:24:08;;;;;;;71.18;36.30;;;;;;;11.21;71.43;95896.56;5072620;28;20040;-77
2022/11/09 07:26:33;;;;;;;62.75;35.38;;;;;;;11.38;71.03;95912.28;5063713;28;20616;-78
2022/11/09 07:28:58;;;;;;;64.00;36.60;;;;;;;10.45;71.09;95777.59;5039947;28;20180;-77
2022/11/09 07:31:28;;;;;;;65.78;36.65;;;;;;;10.81;71.89;95830.81;5047376;28;20040;-78
2022/11/09 07:33:54;;;;;;;80.40;36.67;;;;;;;10.80;71.68;95843.28;5064712;28;20047;-77
2022/11/09 07:36:19;;;;;;;76.32;38.92;;;;;;;10.82;71.64;95849.16;5067372;28;20096;-78
2022/11/09 07:38:45;;;;;;;67.85;37.58;;;;;;;11.25;72.10;95910.91;5066746;28;20101;-76
2022/11/09 07:41:10;;;;;;;69.25;38.92;;;;;;;10.63;72.16;95818.00;5030290;28;20996;-78
2022/11/09 07:43:36;;;;;;;71.93;37.45;;;;;;;11.36;71.92;95909.09;5051085;28;20112;-78
2022/11/09 07:46:04;;;;;;;71.68;36.55;;;;;;;11.14;71.12;95854.31;5067690;28;20118;-78
2022/11/09 07:48:29;;;;;;;81.80;39.65;;;;;;;11.23;71.13;95866.03;5036754;28;20079;-78
2022/11/09 07:50:56;;;;;;;73.50;38.10;;;;;;;10.50;71.21;95754.81;5035830;28;20071;-80
2022/11/09 07:53:21;;;;;;;66.28;37.55;;;;;;;11.54;71.48;95908.63;5031431;28;20108;-78
2022/11/09 07:55:59;;;;;;;70.68;38.80;;;;;;;11.25;70.87;95862.31;5058467;28;20054;-78
2022/11/09 07:58:25;;;;;;;65.40;37.85;;;;;;;10.89;71.32;95822.38;5055031;28;20342;-80
2022/11/09 08:00:50;;;;;;;72.93;38.83;;;;;;;10.47;71.02;95737.56;5025445;28;20056;-77
2022/11/09 08:03:18;;;;;;;69.15;39.28;;;;;;;10.79;70.64;95779.88;5052914;28;20031;-79
2022/11/09 08:05:45;;;;;;;69.75;39.70;;;;;;;11.16;70.79;95835.47;5037887;28;20084;-78
2022/11/09 08:08:11;;;;;;;70.82;39.00;;;;;;;11.39;70.61;95844.81;5062417;28;20180;-78
2022/11/09 08:10:38;;;;;;;63.47;37.90;;;;;;;11.25;70.37;95815.31;5035892;28;20535;-77
2022/11/09 08:13:10;;;;;;;79.32;41.30;;;;;;;11.56;70.22;95856.81;5049415;28;20536;-78
2022/11/09 08:15:37;;;;;;;70.38;39.88;;;;;;;12.00;69.81;95906.88;5043550;28;20047;-78
2022/11/09 08:18:05;;;;;;;76.60;40.33;;;;;;;11.69;69.58;95855.50;5044056;28;20052;-76
2022/11/09 08:20:32;;;;;;;82.45;43.05;;;;;;;12.01;69.88;95913.00;5069773;28;20379;-77
2022/11/09 08:22:58;;;;;;;85.82;41.78;;;;;;;12.07;69.43;95910.06;5044338;28;20584;-77
2022/11/09 08:25:23;;;;;;;72.35;43.40;;;;;;;12.13;69.16;95913.56;5066029;28;20048;-78
2022/11/09 08:27:49;;;;;;;75.47;40.67;;;;;;;12.14;69.26;95913.28;5063126;28;20044;-77
2022/11/09 08:30:18;;;;;;;83.88;42.20;;;;;;;12.06;68.92;95881.09;5068192;28;20542;-78
2022/11/09 08:32:44;;;;;;;74.32;42.22;;;;;;;11.63;69.19;95808.75;5067567;28;20033;-77
2022/11/09 08:35:12;;;;;;;84.43;45.28;;;;;;;12.32;69.17;95909.28;5053203;28;20493;-77
2022/11/09 08:37:38;;;;;;;73.97;41.78;;;;;;;12.04;68.56;95852.13;5061982;28;20503;-77
2022/11/09 08:40:05;;;;;;;79.45;44.78;;;;;;;12.00;68.44;95864.34;5044735;28;20051;-77
2022/11/09 08:42:30;;;;;;;82.22;44.13;;;;;;;12.32;68.46;95906.63;5042238;28;20044;-77
2022/11/09 08:44:56;;;;;;;86.07;47.10;;;;;;;11.64;68.48;95797.06;5064237;28;20081;-78
2022/11/09 08:47:21;;;;;;;83.03;45.13;;;;;;;11.28;68.79;95760.91;5064233;28;20421;-77
2022/11/09 08:49:47;;;;;;;79.63;45.47;;;;;;;12.08;68.18;95876.31;5063296;28;20047;-78
2022/11/09 08:52:13;;;;;;;81.18;44.75;;;;;;;11.87;68.34;95822.34;5063419;28;20052;-78
2022/11/09 08:54:38;;;;;;;92.75;47.45;;;;;;;12.45;68.32;95907.94;5035739;28;20078;-77
2022/11/09 08:57:04;;;;;;;81.55;45.13;;;;;;;11.90;68.08;95819.94;5037427;28;20520;-80
2022/11/09 08:59:29;;;;;;;83.25;47.63;;;;;;;11.92;68.32;95814.38;5063162;28;20833;-81
2022/11/09 09:01:55;;;;;;;98.32;49.50;;;;;;;12.45;68.64;95892.00;5057072;28;20044;-78
2022/11/09 09:04:21;;;;;;;92.72;50.00;;;;;;;12.44;68.25;95869.09;5056373;28;20091;-78
2022/11/09 09:06:46;;;;;;;76.25;45.38;;;;;;;12.43;68.38;95884.31;5041150;28;20045;-79
2022/11/09 09:09:12;;;;;;;79.25;44.55;;;;;;;11.72;68.00;95761.19;5041800;28;20075;-78
2022/11/09 09:11:37;;;;;;;76.75;44.13;;;;;;;12.68;67.62;95899.41;5042249;28;20143;-78
2022/11/09 09:14:03;;;;;;;92.72;45.10;;;;;;;12.31;67.32;95820.72;5053717;28;20349;-79
2022/11/09 09:16:28;;;;;;;78.32;44.00;;;;;;;12.83;67.52;95899.38;5057836;28;20036;-78
2022/11/09 09:18:53;;;;;;;84.00;44.03;;;;;;;12.13;67.37;95799.22;5063931;28;20048;-78
2022/11/09 09:21:19;;;;;;;82.38;43.05;;;;;;;11.68;67.60;95726.38;5046983;28;20093;-79
2022/11/09 09:23:48;;;;;;;74.22;42.92;;;;;;;12.42;67.34;95844.66;5048992;28;20052;-79
2022/11/09 09:26:13;;;;;;;77.32;42.35;;;;;;;12.54;66.77;95847.81;5048053;28;20060;-78
2022/11/09 09:28:39;;;;;;;72.22;41.75;;;;;;;12.30;66.31;95786.41;5043995;28;20068;-79
2022/11/09 09:31:05;;;;;;;69.28;39.95;;;;;;;12.71;66.27;95840.34;5041254;28;20538;-80
2022/11/09 09:33:31;;;;;;;75.70;40.38;;;;;;;12.59;66.17;95821.19;5046979;28;20044;-77
2022/11/09 09:35:57;;;;;;;74.05;40.28;;;;;;;13.07;66.01;95881.75;5065125;28;20044;-78
2022/11/09 09:38:24;;;;;;;69.22;37.22;;;;;;;12.87;65.64;95844.56;5016436;28;20047;-78
2022/11/09 09:41:01;;;;;;;69.05;37.10;;;;;;;13.11;65.24;95872.16;5066127;28;20097;-79
2022/11/09 09:43:36;;;;;;;66.78;36.30;;;;;;;13.21;65.14;95879.34;5039010;28;20060;-82
2022/11/09 09:46:08;;;;;;;66.70;37.55;;;;;;;13.24;65.14;95860.16;5032697;28;20135;-78
2022/11/09 09:49:09;;;;;;;69.70;40.47;;;;;;;13.37;64.39;95861.41;5062977;28;20541;-79
2022/11/09 09:51:41;;;;;;;70.28;39.92;;;;;;;13.30;63.85;95829.75;5047352;28;20501;-78
2022/11/09 09:54:20;;;;;;;;;;;;;;;13.76;64.03;95870.25;5063110;28;20066;-78
2022/11/09 09:56:49;;;;;;;59.33;35.92;;;;;;;14.33;62.55;95854.66;5039750;28;19970;-79
2022/11/09 09:59:24;;;;;;;59.45;35.40;;;;;;;15.27;59.55;95869.16;5041968;28;20048;-79
2022/11/09 10:01:49;;;;;;;62.30;35.65;;;;;;;15.87;56.60;95799.94;5044314;28;20367;-78
2022/11/09 10:04:21;;;;;;;55.78;34.45;;;;;;;16.90;53.60;95855.75;5070094;28;20047;-79
2022/11/09 10:06:59;;;;;;;56.05;32.40;;;;;;;17.95;51.48;95853.03;5062576;28;20035;-79
2022/11/09 10:09:40;;;;;;;53.00;32.72;;;;;;;18.58;49.45;95860.97;5066723;28;20048;-79
2022/11/09 10:12:14;;;;;;;48.17;29.77;;;;;;;19.14;48.31;95833.41;5064016;28;20122;-79
2022/11/09 10:15:04;;;;;;;47.17;27.88;;;;;;;19.92;46.46;95855.88;5057345;28;20095;-79
2022/11/09 10:17:46;;;;;;;33.67;24.35;;;;;;;20.46;44.24;95842.88;5062414;28;20035;-78
2022/11/09 10:20:14;;;;;;;45.67;28.25;;;;;;;20.49;43.46;95847.66;5048806;28;20097;-78
2022/11/09 10:22:40;;;;;;;50.08;28.73;;;;;;;20.48;43.45;95837.97;5044968;28;20489;-79
2022/11/09 10:25:14;;;;;;;44.10;28.45;;;;;;;20.33;42.98;95841.97;5059721;28;20442;-79
2022/11/09 10:27:48;;;;;;;40.38;24.83;;;;;;;20.07;43.44;95851.91;5052390;28;20039;-78
2022/11/09 10:30:18;;;;;;;46.55;28.77;;;;;;;20.07;43.76;95821.50;5058708;28;20048;-80
2022/11/09 10:32:46;;;;;;;41.78;25.75;;;;;;;19.87;43.80;95807.59;5045902;28;21073;-82
2022/11/09 10:35:12;;;;;;;46.05;27.08;;;;;;;19.77;43.74;95840.19;5049269;28;20040;-80
2022/11/09 10:37:40;;;;;;;43.30;24.65;;;;;;;19.74;43.66;95840.03;5035998;28;20051;-77
2022/11/09 10:40:27;;;;;;;36.20;23.77;;;;;;;19.58;44.31;95837.81;5045419;28;20055;-78
2022/11/09 10:42:58;;;;;;;44.13;25.45;;;;;;;19.30;44.65;95830.28;5046650;28;20313;-78
2022/11/09 10:45:31;;;;;;;44.05;27.20;;;;;;;18.51;45.19;95750.44;5063951;28;20041;-78
2022/11/09 10:47:57;;;;;;;44.30;25.00;;;;;;;18.54;45.76;95797.41;5061834;28;20063;-80
2022/11/09 10:50:38;;;;;;;40.88;25.77;;;;;;;18.02;46.53;95754.91;5070459;28;20817;-79
2022/11/09 10:53:07;;;;;;;48.10;26.10;;;;;;;18.05;47.87;95821.41;5056898;28;20490;-81
2022/11/09 10:55:35;;;;;;;37.63;26.17;;;;;;;18.08;47.26;95809.25;5067711;28;20128;-79
2022/11/09 10:58:17;;;;;;;44.22;24.85;;;;;;;17.52;47.91;95758.78;5064079;28;20143;-79
2022/11/09 11:00:59;;;;;;;47.55;26.92;;;;;;;17.86;47.88;95815.41;5065861;28;20146;-79
2022/11/09 11:03:25;;;;;;;41.88;26.75;;;;;;;17.75;48.06;95776.50;5063685;28;20045;-79
2022/11/09 11:06:15;;;;;;;44.05;26.55;;;;;;;17.58;48.76;95784.38;5056490;28;20118;-79
2022/11/09 11:08:44;;;;;;;36.20;23.08;;;;;;;17.64;48.10;95793.91;5056840;28;20044;-80
2022/11/09 11:11:42;;;;;;;40.70;23.38;;;;;;;17.72;48.04;95772.53;5062177;28;20354;-79
2022/11/09 11:14:35;;;;;;;36.75;23.73;;;;;;;17.99;47.74;95795.00;4986867;28;20106;-79
2022/11/09 11:17:01;;;;;;;31.85;17.50;;;;;;;17.82;46.65;95778.78;5065757;28;20082;-80
2022/11/09 11:19:45;;;;;;;38.25;20.60;;;;;;;17.93;46.88;95793.50;5027289;28;20075;-80
2022/11/09 11:22:11;;;;;;;31.92;21.27;;;;;;;18.23;46.49;95787.44;5062772;28;20040;-81
2022/11/09 11:24:41;;;;;;;33.60;22.80;;;;;;;18.36;45.93;95756.22;5063643;28;20560;-80
2022/11/09 11:27:16;;;;;;;35.10;22.67;;;;;;;18.21;46.74;95749.34;5057413;28;20078;-82
2022/11/09 11:29:53;;;;;;;35.63;22.23;;;;;;;18.56;45.94;95784.44;5054976;28;20090;-82
2022/11/09 11:32:19;;;;;;;34.13;21.38;;;;;;;18.48;45.56;95778.72;5029828;28;20059;-80
2022/11/09 11:34:46;;;;;;;37.28;24.02;;;;;;;17.91;46.06;95699.13;5066886;28;20044;-79
2022/11/09 11:37:41;;;;;;;40.35;23.08;;;;;;;18.29;45.98;95751.28;5047216;28;20032;-81
2022/11/09 11:40:14;;;;;;;33.83;22.10;;;;;;;18.61;45.34;95757.47;5041537;28;20536;-80
2022/11/09 11:42:46;;;;;;;38.10;23.48;;;;;;;18.82;45.23;95771.94;5061587;28;20036;-80
2022/11/09 11:45:32;;;;;;;41.17;25.48;;;;;;;18.29;46.07;95723.66;5061926;28;20443;-80
2022/11/09 11:48:10;;;;;;;36.50;23.63;;;;;;;18.63;46.11;95763.31;5044511;28;20056;-79
2022/11/09 11:50:41;;;;;;;37.45;24.35;;;;;;;18.67;45.78;95765.09;5033675;28;20112;-79
2022/11/09 11:53:18;;;;;;;42.13;24.92;;;;;;;18.77;45.83;95761.31;5055993;28;20609;-79
2022/11/09 11:55:46;;;;;;;44.45;24.65;;;;;;;18.81;45.57;95759.59;5041562;28;20142;-80
2022/11/09 11:58:27;;;;;;;56.10;26.33;;;;;;;18.95;45.90;95754.91;5040907;28;20045;-79
2022/11/09 12:01:30;;;;;;;41.60;26.90;;;;;;;18.64;46.36;95756.84;5041262;28;20109;-80
2022/11/09 12:04:17;;;;;;;48.33;26.95;;;;;;;18.91;46.13;95753.16;5028807;28;20477;-80
2022/11/09 12:06:47;;;;;;;51.30;30.00;;;;;;;18.62;46.07;95730.28;5037856;28;20444;-79
2022/11/09 12:09:32;;;;;;;45.27;26.90;;;;;;;18.80;46.02;95768.75;5056782;28;20040;-80
2022/11/09 12:12:23;;;;;;;44.45;26.85;;;;;;;18.24;45.70;95633.28;5038583;28;20083;-81
2022/11/09 12:14:58;;;;;;;46.55;27.50;;;;;;;18.83;46.04;95762.78;5024673;28;20139;-85
2022/11/09 12:17:29;;;;;;;48.20;28.60;;;;;;;18.64;45.99;95752.25;5054614;28;20043;-79
2022/11/09 12:19:57;;;;;;;;;;;;;;;18.60;45.91;95754.00;5054093;28;20248;-80
2022/11/09 12:22:46;;;;;;;44.13;27.30;;;;;;;18.43;45.66;95695.59;5036837;28;19928;-79
2022/11/09 12:25:23;;;;;;;55.45;27.58;;;;;;;18.84;45.86;95745.56;5034670;28;20366;-79
2022/11/09 12:28:12;;;;;;;44.72;27.58;;;;;;;18.85;45.73;95742.53;5060586;28;20036;-80
2022/11/09 12:30:43;;;;;;;44.80;27.08;;;;;;;18.82;45.69;95737.81;5062341;28;20093;-80
2022/11/09 12:33:19;;;;;;;48.65;28.02;;;;;;;18.40;45.50;95647.06;5067953;28;20089;-79
2022/11/09 12:35:54;;;;;;;49.28;27.80;;;;;;;18.91;45.48;95715.53;5042631;28;20068;-80
2022/11/09 12:38:24;;;;;;;44.13;27.77;;;;;;;19.13;45.30;95737.72;5033537;28;20070;-80
2022/11/09 12:40:57;;;;;;;47.75;27.60;;;;;;;18.34;46.10;95653.69;5069953;28;20525;-80
2022/11/09 12:43:48;;;;;;;43.75;26.88;;;;;;;18.45;46.01;95638.91;5052156;28;20036;-80
2022/11/09 12:46:15;;;;;;;46.95;26.83;;;;;;;19.19;45.49;95728.38;5068451;28;20455;-79
2022/11/09 12:48:44;;;;;;;49.22;29.38;;;;;;;17.98;45.71;95600.19;5067718;28;20741;-79
2022/11/09 12:51:09;;;;;;;47.00;28.38;;;;;;;18.46;45.73;95678.09;5062857;28;20036;-80
2022/11/09 12:53:37;;;;;;;47.38;29.10;;;;;;;18.29;44.94;95624.31;5028448;28;20052;-81
2022/11/09 12:56:16;;;;;;;46.25;28.20;;;;;;;18.89;45.75;95730.06;5044465;28;20056;-78
2022/11/09 12:58:43;;;;;;;46.78;28.55;;;;;;;17.92;45.67;95594.19;5031942;28;20049;-80
2022/11/09 13:01:25;;;;;;;44.80;27.70;;;;;;;18.86;45.20;95697.63;5041738;28;20048;-81
2022/11/09 13:03:57;;;;;;;44.70;27.63;;;;;;;18.72;45.41;95692.41;5025803;28;20033;-80
2022/11/09 13:06:24;;;;;;;;;;;;;;;19.09;45.48;95720.63;5025230;28;20044;-80
2022/11/09 13:09:23;;;;;;;44.22;28.02;;;;;;;18.95;45.11;95703.84;5060356;28;20220;-79
2022/11/09 13:11:51;;;;;;;46.67;30.63;;;;;;;18.19;45.68;95605.78;5025472;28;20048;-80
2022/11/09 13:14:27;;;;;;;47.05;28.00;;;;;;;19.00;46.32;95716.31;5060031;28;20043;-79
2022/11/09 13:17:19;;;;;;;40.70;22.88;;;;;;;19.04;45.39;95717.28;5063095;28;20123;-78
2022/11/09 13:19:44;;;;;;;44.88;26.90;;;;;;;19.16;45.35;95717.47;5047341;28;20347;-78
2022/11/09 13:22:13;;;;;;;41.40;27.65;;;;;;;18.99;45.62;95718.25;5065468;28;20058;-80
2022/11/09 13:24:48;;;;;;;45.22;26.83;;;;;;;19.12;45.40;95727.28;5065247;28;20059;-77
2022/11/09 13:27:31;;;;;;;43.78;27.95;;;;;;;19.19;45.19;95724.91;5049252;28;20046;-79
2022/11/09 13:29:57;;;;;;;43.75;26.83;;;;;;;18.99;45.15;95688.69;5045421;28;20462;-78
2022/11/09 13:32:26;;;;;;;49.13;27.25;;;;;;;19.07;45.19;95722.81;5069819;28;20054;-79
2022/11/09 13:34:56;;;;;;;56.40;29.27;;;;;;;18.71;45.16;95700.75;5066236;28;20121;-79
2022/11/09 13:37:40;;;;;;;46.05;27.13;;;;;;;18.89;45.14;95723.91;5065469;28;20548;-78
2022/11/09 13:40:30;;;;;;;46.53;27.00;;;;;;;18.70;45.59;95720.66;5047207;28;20065;-78
2022/11/09 13:43:03;;;;;;;45.42;27.13;;;;;;;18.49;45.61;95685.50;5067578;28;20510;-79
2022/11/09 13:45:37;;;;;;;53.03;29.42;;;;;;;18.63;45.73;95723.03;5048720;28;20051;-79
2022/11/09 13:48:05;;;;;;;43.55;27.55;;;;;;;18.16;46.02;95668.94;5053944;28;20549;-80
2022/11/09 13:50:33;;;;;;;48.70;27.17;;;;;;;18.00;46.30;95640.94;5046593;28;20127;-79
2022/11/09 13:53:00;;;;;;;49.15;27.45;;;;;;;18.47;46.74;95728.78;5038425;28;20134;-79
2022/11/09 13:55:44;;;;;;;46.22;28.20;;;;;;;17.99;46.93;95663.50;5061198;28;20041;-79
2022/11/09 13:58:23;;;;;;;41.42;27.88;;;;;;;18.11;46.69;95691.34;5040014;28;20039;-80
2022/11/09 14:00:48;;;;;;;44.38;26.25;;;;;;;17.55;46.91;95603.41;5038594;28;20059;-81
2022/11/09 14:03:19;;;;;;;49.78;27.80;;;;;;;17.49;47.48;95610.00;5064393;28;20040;-79
2022/11/09 14:05:49;;;;;;;49.70;25.95;;;;;;;17.50;47.96;95624.22;5038968;28;20590;-78
2022/11/09 14:08:34;;;;;;;46.17;26.42;;;;;;;17.79;48.42;95678.22;5061458;28;20032;-78
2022/11/09 14:11:30;;;;;;;45.45;26.95;;;;;;;17.62;49.27;95686.94;5043138;28;20036;-80
2022/11/09 14:14:01;;;;;;;42.90;25.27;;;;;;;17.83;48.77;95715.97;5048765;28;20230;-79
2022/11/09 14:16:51;;;;;;;43.13;25.77;;;;;;;17.67;49.26;95718.22;5053956;28;20039;-79
2022/11/09 14:19:37;;;;;;;38.25;23.92;;;;;;;17.55;49.67;95712.56;5061608;28;20469;-80
2022/11/09 14:22:13;;;;;;;41.35;26.08;;;;;;;16.98;50.07;95648.75;5042330;28;20102;-78